sensor_id;sensor_type;location;lat;lon;timestamp;temperature;humidity
10873;DHT22;34586;53.616;10.032;2024-02-16T00:00:17;11.20;99.90
10873;DHT22;34586;53.616;10.032;2024-02-16T00:02:43;11.20;99.90
10873;DHT22;34586;53.616;10.032;2024-02-16T00:05:10;11.20;99.90
10873;DHT22;34586;53.616;10.032;2024-02-16T00:07:39;11.20;99.90
10873;DHT22;34586;53.616;10.032;2024-02-16T00:10:05;11.20;99.90
10873;DHT22;34586;53.616;10.032;2024-02-16T00:12:32;11.20;99.90
10873;DHT22;34586;53.616;10.032;2024-02-16T00:14:59;11.20;99.90
10873;DHT22;34586;53.616;10.032;2024-02-16T00:17:25;11.10;99.90
10873;DHT22;34586;53.616;10.032;2024-02-16T00:19:53;11.20;99.90
10873;DHT22;34586;53.616;10.032;2024-02-16T00:22:19;11.10;99.90
10873;DHT22;34586;53.616;10.032;2024-02-16T00:24:44;11.10;99.90
10873;DHT22;34586;53.616;10.032;2024-02-16T00:27:10;11.00;99.90
10873;DHT22;34586;53.616;10.032;2024-02-16T00:29:36;11.00;99.90
10873;DHT22;34586;53.616;10.032;2024-02-16T00:32:04;10.90;99.90
10873;DHT22;34586;53.616;10.032;2024-02-16T00:34:31;11.00;99.90
10873;DHT22;34586;53.616;10.032;2024-02-16T00:36:57;11.00;99.90
10873;DHT22;34586;53.616;10.032;2024-02-16T00:39:23;11.00;99.90
10873;DHT22;34586;53.616;10.032;2024-02-16T00:41:50;11.10;99.90
10873;DHT22;34586;53.616;10.032;2024-02-16T00:44:18;11.10;99.90
10873;DHT22;34586;53.616;10.032;2024-02-16T00:46:44;11.00;99.90
10873;DHT22;34586;53.616;10.032;2024-02-16T00:49:10;11.10;99.90
10873;DHT22;34586;53.616;10.032;2024-02-16T00:51:37;11.10;99.90
10873;DHT22;34586;53.616;10.032;2024-02-16T00:54:03;11.10;99.90
10873;DHT22;34586;53.616;10.032;2024-02-16T00:56:29;11.10;99.90
10873;DHT22;34586;53.616;10.032;2024-02-16T00:58:55;11.10;99.90
10873;DHT22;34586;53.616;10.032;2024-02-16T01:01:21;11.10;99.90
10873;DHT22;34586;53.616;10.032;2024-02-16T01:03:51;11.10;99.90
10873;DHT22;34586;53.616;10.032;2024-02-16T01:06:19;11.00;99.90
10873;DHT22;34586;53.616;10.032;2024-02-16T01:08:45;11.00;99.90
10873;DHT22;34586;53.616;10.032;2024-02-16T01:11:12;10.90;99.90
10873;DHT22;34586;53.616;10.032;2024-02-16T01:13:39;10.90;99.90
10873;DHT22;34586;53.616;10.032;2024-02-16T01:16:05;10.80;99.90
10873;DHT22;34586;53.616;10.032;2024-02-16T01:18:31;10.80;99.90
10873;DHT22;34586;53.616;10.032;2024-02-16T01:20:58;10.70;99.90
10873;DHT22;34586;53.616;10.032;2024-02-16T01:23:24;10.70;99.90
10873;DHT22;34586;53.616;10.032;2024-02-16T01:25:49;10.80;99.90
10873;DHT22;34586;53.616;10.032;2024-02-16T01:28:15;10.70;99.90
10873;DHT22;34586;53.616;10.032;2024-02-16T01:30:41;10.60;99.90
10873;DHT22;34586;53.616;10.032;2024-02-16T01:33:07;10.60;99.90
10873;DHT22;34586;53.616;10.032;2024-02-16T01:35:33;10.60;99.90
10873;DHT22;34586;53.616;10.032;2024-02-16T01:37:59;10.60;99.90
10873;DHT22;34586;53.616;10.032;2024-02-16T01:40:25;10.60;99.90
10873;DHT22;34586;53.616;10.032;2024-02-16T01:42:52;10.60;99.90
10873;DHT22;34586;53.616;10.032;2024-02-16T01:45:20;10.60;99.90
10873;DHT22;34586;53.616;10.032;2024-02-16T01:47:49;10.60;99.90
10873;DHT22;34586;53.616;10.032;2024-02-16T01:50:16;10.60;99.90
10873;DHT22;34586;53.616;10.032;2024-02-16T01:52:46;10.60;99.90
10873;DHT22;34586;53.616;10.032;2024-02-16T01:55:12;10.60;99.90
10873;DHT22;34586;53.616;10.032;2024-02-16T01:57:43;10.50;99.90
10873;DHT22;34586;53.616;10.032;2024-02-16T02:00:09;10.60;99.90
10873;DHT22;34586;53.616;10.032;2024-02-16T02:02:36;10.60;99.90
10873;DHT22;34586;53.616;10.032;2024-02-16T02:05:02;10.60;99.90
10873;DHT22;34586;53.616;10.032;2024-02-16T02:07:29;10.60;99.90
10873;DHT22;34586;53.616;10.032;2024-02-16T02:09:54;10.60;99.90
10873;DHT22;34586;53.616;10.032;2024-02-16T02:12:20;10.60;99.90
10873;DHT22;34586;53.616;10.032;2024-02-16T02:14:47;10.50;99.90
10873;DHT22;34586;53.616;10.032;2024-02-16T02:17:13;10.60;99.90
10873;DHT22;34586;53.616;10.032;2024-02-16T02:19:38;10.50;99.90
10873;DHT22;34586;53.616;10.032;2024-02-16T02:22:04;10.60;99.90
10873;DHT22;34586;53.616;10.032;2024-02-16T02:24:30;10.60;99.90
10873;DHT22;34586;53.616;10.032;2024-02-16T02:26:56;10.50;99.90
10873;DHT22;34586;53.616;10.032;2024-02-16T02:29:23;10.50;99.90
10873;DHT22;34586;53.616;10.032;2024-02-16T02:31:48;10.50;99.90
10873;DHT22;34586;53.616;10.032;2024-02-16T02:34:14;10.50;99.90
10873;DHT22;34586;53.616;10.032;2024-02-16T02:36:40;10.50;99.90
10873;DHT22;34586;53.616;10.032;2024-02-16T02:39:06;10.50;99.90
10873;DHT22;34586;53.616;10.032;2024-02-16T02:41:32;10.40;99.90
10873;DHT22;34586;53.616;10.032;2024-02-16T02:43:58;10.40;99.90
10873;DHT22;34586;53.616;10.032;2024-02-16T02:46:23;10.40;99.90
10873;DHT22;34586;53.616;10.032;2024-02-16T02:48:49;10.40;99.90
10873;DHT22;34586;53.616;10.032;2024-02-16T02:51:15;10.40;99.90
10873;DHT22;34586;53.616;10.032;2024-02-16T02:53:41;10.40;99.90
10873;DHT22;34586;53.616;10.032;2024-02-16T02:56:06;10.50;99.90
10873;DHT22;34586;53.616;10.032;2024-02-16T02:58:33;10.40;99.90
10873;DHT22;34586;53.616;10.032;2024-02-16T03:00:58;10.40;99.90
10873;DHT22;34586;53.616;10.032;2024-02-16T03:03:24;10.40;99.90
10873;DHT22;34586;53.616;10.032;2024-02-16T03:05:50;10.40;99.90
10873;DHT22;34586;53.616;10.032;2024-02-16T03:08:15;10.40;99.90
10873;DHT22;34586;53.616;10.032;2024-02-16T03:10:41;10.40;99.90
10873;DHT22;34586;53.616;10.032;2024-02-16T03:13:07;10.50;99.90
10873;DHT22;34586;53.616;10.032;2024-02-16T03:15:34;10.50;99.90
10873;DHT22;34586;53.616;10.032;2024-02-16T03:18:01;10.50;99.90
10873;DHT22;34586;53.616;10.032;2024-02-16T03:20:27;10.50;99.90
10873;DHT22;34586;53.616;10.032;2024-02-16T03:22:53;10.50;99.90
10873;DHT22;34586;53.616;10.032;2024-02-16T03:25:18;10.50;99.90
10873;DHT22;34586;53.616;10.032;2024-02-16T03:27:45;10.50;99.90
10873;DHT22;34586;53.616;10.032;2024-02-16T03:30:11;10.40;99.90
10873;DHT22;34586;53.616;10.032;2024-02-16T03:32:37;10.50;99.90
10873;DHT22;34586;53.616;10.032;2024-02-16T03:35:03;10.40;99.90
10873;DHT22;34586;53.616;10.032;2024-02-16T03:37:29;10.50;99.90
10873;DHT22;34586;53.616;10.032;2024-02-16T03:39:56;10.50;99.90
10873;DHT22;34586;53.616;10.032;2024-02-16T03:42:21;10.50;99.90
10873;DHT22;34586;53.616;10.032;2024-02-16T03:44:47;10.60;99.90
10873;DHT22;34586;53.616;10.032;2024-02-16T03:47:12;10.50;99.90
10873;DHT22;34586;53.616;10.032;2024-02-16T03:49:39;10.50;99.90
10873;DHT22;34586;53.616;10.032;2024-02-16T03:52:05;10.60;99.90
10873;DHT22;34586;53.616;10.032;2024-02-16T03:54:30;10.60;99.90
10873;DHT22;34586;53.616;10.032;2024-02-16T03:56:56;10.60;99.90
10873;DHT22;34586;53.616;10.032;2024-02-16T03:59:23;10.60;99.90
10873;DHT22;34586;53.616;10.032;2024-02-16T04:01:49;10.60;99.90
10873;DHT22;34586;53.616;10.032;2024-02-16T04:04:15;10.60;99.90
10873;DHT22;34586;53.616;10.032;2024-02-16T04:06:41;10.60;99.90
10873;DHT22;34586;53.616;10.032;2024-02-16T04:09:07;10.60;99.90
10873;DHT22;34586;53.616;10.032;2024-02-16T04:11:33;10.60;99.90
10873;DHT22;34586;53.616;10.032;2024-02-16T04:13:59;10.60;99.90
10873;DHT22;34586;53.616;10.032;2024-02-16T04:16:25;10.60;99.90
10873;DHT22;34586;53.616;10.032;2024-02-16T04:18:51;10.60;99.90
10873;DHT22;34586;53.616;10.032;2024-02-16T04:21:17;10.60;99.90
10873;DHT22;34586;53.616;10.032;2024-02-16T04:23:43;10.60;99.90
10873;DHT22;34586;53.616;10.032;2024-02-16T04:26:09;10.60;99.90
10873;DHT22;34586;53.616;10.032;2024-02-16T04:28:35;10.60;99.90
10873;DHT22;34586;53.616;10.032;2024-02-16T04:31:01;10.60;99.90
10873;DHT22;34586;53.616;10.032;2024-02-16T04:33:27;10.60;99.90
10873;DHT22;34586;53.616;10.032;2024-02-16T04:35:53;11.00;99.90
10873;DHT22;34586;53.616;10.032;2024-02-16T04:38:18;10.60;99.90
10873;DHT22;34586;53.616;10.032;2024-02-16T04:40:45;10.60;99.90
10873;DHT22;34586;53.616;10.032;2024-02-16T04:43:10;10.70;99.90
10873;DHT22;34586;53.616;10.032;2024-02-16T04:45:36;10.60;99.90
10873;DHT22;34586;53.616;10.032;2024-02-16T04:48:05;10.60;99.90
10873;DHT22;34586;53.616;10.032;2024-02-16T04:50:34;10.60;99.90
10873;DHT22;34586;53.616;10.032;2024-02-16T04:53:00;10.60;99.90
10873;DHT22;34586;53.616;10.032;2024-02-16T04:55:29;10.60;99.90
10873;DHT22;34586;53.616;10.032;2024-02-16T04:57:56;10.60;99.90
10873;DHT22;34586;53.616;10.032;2024-02-16T05:00:22;10.60;99.90
10873;DHT22;34586;53.616;10.032;2024-02-16T05:02:48;10.60;99.90
10873;DHT22;34586;53.616;10.032;2024-02-16T05:05:13;10.50;99.90
10873;DHT22;34586;53.616;10.032;2024-02-16T05:07:42;10.40;99.90
10873;DHT22;34586;53.616;10.032;2024-02-16T05:10:10;10.60;99.90
10873;DHT22;34586;53.616;10.032;2024-02-16T05:12:36;10.50;99.90
10873;DHT22;34586;53.616;10.032;2024-02-16T05:15:03;10.50;99.90
10873;DHT22;34586;53.616;10.032;2024-02-16T05:17:29;10.50;99.90
10873;DHT22;34586;53.616;10.032;2024-02-16T05:19:54;10.50;99.90
10873;DHT22;34586;53.616;10.032;2024-02-16T05:22:20;10.50;99.90
10873;DHT22;34586;53.616;10.032;2024-02-16T05:24:47;10.50;99.90
10873;DHT22;34586;53.616;10.032;2024-02-16T05:27:13;10.50;99.90
10873;DHT22;34586;53.616;10.032;2024-02-16T05:29:40;10.50;99.90
10873;DHT22;34586;53.616;10.032;2024-02-16T05:32:06;10.40;99.90
10873;DHT22;34586;53.616;10.032;2024-02-16T05:34:31;10.50;99.90
10873;DHT22;34586;53.616;10.032;2024-02-16T05:37:06;10.50;99.90
10873;DHT22;34586;53.616;10.032;2024-02-16T05:39:38;10.40;99.90
10873;DHT22;34586;53.616;10.032;2024-02-16T05:42:20;10.40;99.90
10873;DHT22;34586;53.616;10.032;2024-02-16T05:44:48;10.40;99.90
10873;DHT22;34586;53.616;10.032;2024-02-16T05:47:15;10.40;99.90
10873;DHT22;34586;53.616;10.032;2024-02-16T05:49:41;10.40;99.90
10873;DHT22;34586;53.616;10.032;2024-02-16T05:52:07;10.40;99.90
10873;DHT22;34586;53.616;10.032;2024-02-16T05:54:46;10.40;99.90
10873;DHT22;34586;53.616;10.032;2024-02-16T05:57:13;10.30;99.90
10873;DHT22;34586;53.616;10.032;2024-02-16T05:59:39;10.40;99.90
10873;DHT22;34586;53.616;10.032;2024-02-16T06:02:05;10.40;99.90
10873;DHT22;34586;53.616;10.032;2024-02-16T06:04:33;10.40;99.90
10873;DHT22;34586;53.616;10.032;2024-02-16T06:06:59;10.30;99.90
10873;DHT22;34586;53.616;10.032;2024-02-16T06:09:26;10.00;99.90
10873;DHT22;34586;53.616;10.032;2024-02-16T06:12:03;10.40;99.90
10873;DHT22;34586;53.616;10.032;2024-02-16T06:14:30;10.40;99.90
10873;DHT22;34586;53.616;10.032;2024-02-16T06:16:56;10.40;99.90
10873;DHT22;34586;53.616;10.032;2024-02-16T06:19:22;10.30;99.90
10873;DHT22;34586;53.616;10.032;2024-02-16T06:21:48;10.30;99.90
10873;DHT22;34586;53.616;10.032;2024-02-16T06:24:13;10.30;99.90
10873;DHT22;34586;53.616;10.032;2024-02-16T06:26:39;10.30;99.90
10873;DHT22;34586;53.616;10.032;2024-02-16T06:29:04;10.20;99.90
10873;DHT22;34586;53.616;10.032;2024-02-16T06:31:30;10.20;99.90
10873;DHT22;34586;53.616;10.032;2024-02-16T06:33:55;10.20;99.90
10873;DHT22;34586;53.616;10.032;2024-02-16T06:36:22;10.10;99.90
10873;DHT22;34586;53.616;10.032;2024-02-16T06:38:48;10.10;99.90
10873;DHT22;34586;53.616;10.032;2024-02-16T06:41:14;10.10;99.90
10873;DHT22;34586;53.616;10.032;2024-02-16T06:43:40;10.10;99.90
10873;DHT22;34586;53.616;10.032;2024-02-16T06:46:05;10.00;99.90
10873;DHT22;34586;53.616;10.032;2024-02-16T06:48:31;10.00;99.90
10873;DHT22;34586;53.616;10.032;2024-02-16T06:50:56;10.00;99.90
10873;DHT22;34586;53.616;10.032;2024-02-16T06:53:22;10.00;99.90
10873;DHT22;34586;53.616;10.032;2024-02-16T06:55:48;9.90;99.90
10873;DHT22;34586;53.616;10.032;2024-02-16T06:58:14;9.90;99.90
10873;DHT22;34586;53.616;10.032;2024-02-16T07:00:39;10.00;99.90
10873;DHT22;34586;53.616;10.032;2024-02-16T07:03:07;9.90;99.90
10873;DHT22;34586;53.616;10.032;2024-02-16T07:05:34;9.90;99.90
10873;DHT22;34586;53.616;10.032;2024-02-16T07:07:59;9.90;99.90
10873;DHT22;34586;53.616;10.032;2024-02-16T07:10:25;9.90;99.90
10873;DHT22;34586;53.616;10.032;2024-02-16T07:12:50;10.00;99.90
10873;DHT22;34586;53.616;10.032;2024-02-16T07:15:16;9.80;99.90
10873;DHT22;34586;53.616;10.032;2024-02-16T07:17:41;9.90;99.90
10873;DHT22;34586;53.616;10.032;2024-02-16T07:20:07;9.90;99.90
10873;DHT22;34586;53.616;10.032;2024-02-16T07:22:33;9.90;99.90
10873;DHT22;34586;53.616;10.032;2024-02-16T07:24:59;9.90;99.90
10873;DHT22;34586;53.616;10.032;2024-02-16T07:27:30;10.00;99.90
10873;DHT22;34586;53.616;10.032;2024-02-16T07:29:56;10.10;99.90
10873;DHT22;34586;53.616;10.032;2024-02-16T07:32:21;10.10;99.90
10873;DHT22;34586;53.616;10.032;2024-02-16T07:34:47;10.30;99.90
10873;DHT22;34586;53.616;10.032;2024-02-16T07:37:14;10.30;99.90
10873;DHT22;34586;53.616;10.032;2024-02-16T07:39:40;10.40;99.90
10873;DHT22;34586;53.616;10.032;2024-02-16T07:42:06;10.50;99.90
10873;DHT22;34586;53.616;10.032;2024-02-16T07:44:38;10.50;99.90
10873;DHT22;34586;53.616;10.032;2024-02-16T07:47:04;10.60;99.90
10873;DHT22;34586;53.616;10.032;2024-02-16T07:49:29;10.60;99.90
10873;DHT22;34586;53.616;10.032;2024-02-16T07:51:55;10.70;99.90
10873;DHT22;34586;53.616;10.032;2024-02-16T07:54:21;10.80;99.90
10873;DHT22;34586;53.616;10.032;2024-02-16T07:56:46;10.90;99.90
10873;DHT22;34586;53.616;10.032;2024-02-16T07:59:12;10.90;99.90
10873;DHT22;34586;53.616;10.032;2024-02-16T08:01:37;10.90;99.90
10873;DHT22;34586;53.616;10.032;2024-02-16T08:04:04;10.90;99.90
10873;DHT22;34586;53.616;10.032;2024-02-16T08:06:30;11.00;99.90
10873;DHT22;34586;53.616;10.032;2024-02-16T08:08:55;11.00;99.90
10873;DHT22;34586;53.616;10.032;2024-02-16T08:11:22;11.10;99.90
10873;DHT22;34586;53.616;10.032;2024-02-16T08:13:48;11.20;99.90
10873;DHT22;34586;53.616;10.032;2024-02-16T08:16:14;11.30;99.90
10873;DHT22;34586;53.616;10.032;2024-02-16T08:18:39;11.40;99.90
10873;DHT22;34586;53.616;10.032;2024-02-16T08:21:05;11.50;99.90
10873;DHT22;34586;53.616;10.032;2024-02-16T08:23:30;11.70;99.90
10873;DHT22;34586;53.616;10.032;2024-02-16T08:25:57;11.90;99.90
10873;DHT22;34586;53.616;10.032;2024-02-16T08:28:24;11.80;99.90
10873;DHT22;34586;53.616;10.032;2024-02-16T08:30:50;11.90;99.90
10873;DHT22;34586;53.616;10.032;2024-02-16T08:33:15;12.00;99.90
10873;DHT22;34586;53.616;10.032;2024-02-16T08:35:41;12.00;99.90
10873;DHT22;34586;53.616;10.032;2024-02-16T08:38:07;12.00;99.90
10873;DHT22;34586;53.616;10.032;2024-02-16T08:40:37;12.00;99.90
10873;DHT22;34586;53.616;10.032;2024-02-16T08:43:06;12.00;99.90
10873;DHT22;34586;53.616;10.032;2024-02-16T08:45:35;12.00;99.90
10873;DHT22;34586;53.616;10.032;2024-02-16T08:48:00;12.10;99.90
10873;DHT22;34586;53.616;10.032;2024-02-16T08:50:29;12.00;99.90
10873;DHT22;34586;53.616;10.032;2024-02-16T08:52:55;12.10;99.90
10873;DHT22;34586;53.616;10.032;2024-02-16T08:55:21;12.10;99.90
10873;DHT22;34586;53.616;10.032;2024-02-16T08:57:46;12.00;99.90
10873;DHT22;34586;53.616;10.032;2024-02-16T09:00:12;12.10;99.90
10873;DHT22;34586;53.616;10.032;2024-02-16T09:02:38;12.10;99.90
10873;DHT22;34586;53.616;10.032;2024-02-16T09:05:04;12.10;99.90
10873;DHT22;34586;53.616;10.032;2024-02-16T09:07:30;12.10;99.90
10873;DHT22;34586;53.616;10.032;2024-02-16T09:09:56;12.20;99.90
10873;DHT22;34586;53.616;10.032;2024-02-16T09:12:22;12.10;99.90
10873;DHT22;34586;53.616;10.032;2024-02-16T09:14:48;12.20;99.90
10873;DHT22;34586;53.616;10.032;2024-02-16T09:17:13;12.20;99.90
10873;DHT22;34586;53.616;10.032;2024-02-16T09:19:39;12.20;99.90
10873;DHT22;34586;53.616;10.032;2024-02-16T09:22:04;12.20;99.90
10873;DHT22;34586;53.616;10.032;2024-02-16T09:24:32;12.20;99.90
10873;DHT22;34586;53.616;10.032;2024-02-16T09:26:58;12.20;99.90
10873;DHT22;34586;53.616;10.032;2024-02-16T09:29:29;12.10;99.90
10873;DHT22;34586;53.616;10.032;2024-02-16T09:31:54;12.30;99.90
10873;DHT22;34586;53.616;10.032;2024-02-16T09:34:20;12.30;99.90
10873;DHT22;34586;53.616;10.032;2024-02-16T09:36:46;12.30;99.90
10873;DHT22;34586;53.616;10.032;2024-02-16T09:39:11;12.40;99.90
10873;DHT22;34586;53.616;10.032;2024-02-16T09:41:42;12.40;99.90
10873;DHT22;34586;53.616;10.032;2024-02-16T09:44:08;12.40;99.90
10873;DHT22;34586;53.616;10.032;2024-02-16T09:46:35;12.50;99.90
10873;DHT22;34586;53.616;10.032;2024-02-16T09:49:02;12.60;99.90
10873;DHT22;34586;53.616;10.032;2024-02-16T09:51:29;12.60;99.90
10873;DHT22;34586;53.616;10.032;2024-02-16T09:53:55;12.60;99.90
10873;DHT22;34586;53.616;10.032;2024-02-16T09:56:21;12.60;99.90
10873;DHT22;34586;53.616;10.032;2024-02-16T09:58:47;12.60;99.90
10873;DHT22;34586;53.616;10.032;2024-02-16T10:01:19;12.70;99.90
10873;DHT22;34586;53.616;10.032;2024-02-16T10:03:51;12.60;99.90
10873;DHT22;34586;53.616;10.032;2024-02-16T10:06:17;12.70;99.90
10873;DHT22;34586;53.616;10.032;2024-02-16T10:08:52;12.80;99.90
10873;DHT22;34586;53.616;10.032;2024-02-16T10:11:19;12.90;99.90
10873;DHT22;34586;53.616;10.032;2024-02-16T10:14:01;13.00;99.90
10873;DHT22;34586;53.616;10.032;2024-02-16T10:16:28;13.10;99.90
10873;DHT22;34586;53.616;10.032;2024-02-16T10:18:56;13.20;99.90
10873;DHT22;34586;53.616;10.032;2024-02-16T10:21:27;13.30;99.90
10873;DHT22;34586;53.616;10.032;2024-02-16T10:24:01;13.40;99.90
10873;DHT22;34586;53.616;10.032;2024-02-16T10:26:31;13.40;99.90
10873;DHT22;34586;53.616;10.032;2024-02-16T10:28:57;13.60;99.90
10873;DHT22;34586;53.616;10.032;2024-02-16T10:31:24;13.70;99.90
10873;DHT22;34586;53.616;10.032;2024-02-16T10:34:00;13.80;99.90
10873;DHT22;34586;53.616;10.032;2024-02-16T10:36:35;13.80;99.90
10873;DHT22;34586;53.616;10.032;2024-02-16T10:39:02;13.90;99.90
10873;DHT22;34586;53.616;10.032;2024-02-16T10:41:35;14.00;99.90
10873;DHT22;34586;53.616;10.032;2024-02-16T10:44:02;14.00;99.90
10873;DHT22;34586;53.616;10.032;2024-02-16T10:46:29;14.10;99.90
10873;DHT22;34586;53.616;10.032;2024-02-16T10:48:55;14.00;99.90
10873;DHT22;34586;53.616;10.032;2024-02-16T10:51:30;14.00;99.90
10873;DHT22;34586;53.616;10.032;2024-02-16T10:53:58;13.90;99.90
10873;DHT22;34586;53.616;10.032;2024-02-16T10:56:32;13.90;99.90
10873;DHT22;34586;53.616;10.032;2024-02-16T10:59:06;13.80;99.90
10873;DHT22;34586;53.616;10.032;2024-02-16T11:01:39;13.90;99.90
10873;DHT22;34586;53.616;10.032;2024-02-16T11:04:07;13.90;99.90
10873;DHT22;34586;53.616;10.032;2024-02-16T11:06:45;14.00;99.90
10873;DHT22;34586;53.616;10.032;2024-02-16T11:09:10;14.10;99.90
10873;DHT22;34586;53.616;10.032;2024-02-16T11:11:36;14.10;99.90
10873;DHT22;34586;53.616;10.032;2024-02-16T11:14:02;14.30;99.90
10873;DHT22;34586;53.616;10.032;2024-02-16T11:16:29;14.40;99.90
10873;DHT22;34586;53.616;10.032;2024-02-16T11:18:56;14.50;99.90
10873;DHT22;34586;53.616;10.032;2024-02-16T11:21:22;14.70;99.90
10873;DHT22;34586;53.616;10.032;2024-02-16T11:23:47;14.70;99.90
10873;DHT22;34586;53.616;10.032;2024-02-16T11:26:14;14.80;99.90
10873;DHT22;34586;53.616;10.032;2024-02-16T11:28:41;14.80;99.90
10873;DHT22;34586;53.616;10.032;2024-02-16T11:31:07;14.80;99.90
10873;DHT22;34586;53.616;10.032;2024-02-16T11:33:34;14.80;99.90
10873;DHT22;34586;53.616;10.032;2024-02-16T11:36:04;14.90;99.90
10873;DHT22;34586;53.616;10.032;2024-02-16T11:38:33;15.00;99.90
10873;DHT22;34586;53.616;10.032;2024-02-16T11:41:03;15.00;99.90
10873;DHT22;34586;53.616;10.032;2024-02-16T11:43:30;15.00;99.90
10873;DHT22;34586;53.616;10.032;2024-02-16T11:45:57;15.00;99.90
10873;DHT22;34586;53.616;10.032;2024-02-16T11:48:26;15.00;99.90
10873;DHT22;34586;53.616;10.032;2024-02-16T11:51:03;14.90;99.90
10873;DHT22;34586;53.616;10.032;2024-02-16T11:53:32;15.00;99.90
10873;DHT22;34586;53.616;10.032;2024-02-16T11:55:58;14.90;99.90
10873;DHT22;34586;53.616;10.032;2024-02-16T11:58:24;14.90;99.90
10873;DHT22;34586;53.616;10.032;2024-02-16T12:00:50;15.00;99.90
10873;DHT22;34586;53.616;10.032;2024-02-16T12:03:26;15.00;99.90
10873;DHT22;34586;53.616;10.032;2024-02-16T12:05:57;15.00;99.90
10873;DHT22;34586;53.616;10.032;2024-02-16T12:08:23;15.00;99.90
10873;DHT22;34586;53.616;10.032;2024-02-16T12:10:51;15.00;99.90
10873;DHT22;34586;53.616;10.032;2024-02-16T12:13:18;15.10;99.90
10873;DHT22;34586;53.616;10.032;2024-02-16T12:15:45;15.20;99.90
10873;DHT22;34586;53.616;10.032;2024-02-16T12:18:18;15.30;99.90
10873;DHT22;34586;53.616;10.032;2024-02-16T12:20:44;15.20;99.90
10873;DHT22;34586;53.616;10.032;2024-02-16T12:23:13;15.10;99.90
10873;DHT22;34586;53.616;10.032;2024-02-16T12:25:39;15.20;99.90
10873;DHT22;34586;53.616;10.032;2024-02-16T12:28:05;15.20;99.90
10873;DHT22;34586;53.616;10.032;2024-02-16T12:30:31;15.10;99.90
10873;DHT22;34586;53.616;10.032;2024-02-16T12:32:56;15.20;99.90
10873;DHT22;34586;53.616;10.032;2024-02-16T12:35:22;15.30;99.90
10873;DHT22;34586;53.616;10.032;2024-02-16T12:37:48;15.30;99.90
10873;DHT22;34586;53.616;10.032;2024-02-16T12:40:13;15.30;99.90
10873;DHT22;34586;53.616;10.032;2024-02-16T12:42:39;15.40;99.90
10873;DHT22;34586;53.616;10.032;2024-02-16T12:45:05;15.40;99.90
10873;DHT22;34586;53.616;10.032;2024-02-16T12:47:30;15.40;99.90
10873;DHT22;34586;53.616;10.032;2024-02-16T12:49:56;15.40;99.90
10873;DHT22;34586;53.616;10.032;2024-02-16T12:52:23;15.40;99.90
10873;DHT22;34586;53.616;10.032;2024-02-16T12:54:48;15.40;99.90
10873;DHT22;34586;53.616;10.032;2024-02-16T12:57:14;15.30;99.90
10873;DHT22;34586;53.616;10.032;2024-02-16T12:59:40;15.30;99.40
10873;DHT22;34586;53.616;10.032;2024-02-16T13:02:05;15.30;99.90
10873;DHT22;34586;53.616;10.032;2024-02-16T13:04:31;15.20;99.90
10873;DHT22;34586;53.616;10.032;2024-02-16T13:06:58;15.20;99.90
10873;DHT22;34586;53.616;10.032;2024-02-16T13:09:23;15.20;99.90
10873;DHT22;34586;53.616;10.032;2024-02-16T13:11:49;15.10;99.90
10873;DHT22;34586;53.616;10.032;2024-02-16T13:14:20;15.10;99.90
10873;DHT22;34586;53.616;10.032;2024-02-16T13:16:45;15.10;99.90
10873;DHT22;34586;53.616;10.032;2024-02-16T13:19:12;15.10;99.90
10873;DHT22;34586;53.616;10.032;2024-02-16T13:21:38;15.10;99.90
10873;DHT22;34586;53.616;10.032;2024-02-16T13:24:04;15.10;99.90
10873;DHT22;34586;53.616;10.032;2024-02-16T13:26:31;15.00;99.90
10873;DHT22;34586;53.616;10.032;2024-02-16T13:28:57;15.00;99.90
10873;DHT22;34586;53.616;10.032;2024-02-16T13:31:23;15.00;99.90
10873;DHT22;34586;53.616;10.032;2024-02-16T13:33:51;15.00;99.90
10873;DHT22;34586;53.616;10.032;2024-02-16T13:36:17;15.00;99.90
10873;DHT22;34586;53.616;10.032;2024-02-16T13:38:42;15.00;99.90
10873;DHT22;34586;53.616;10.032;2024-02-16T13:41:08;15.00;99.90
10873;DHT22;34586;53.616;10.032;2024-02-16T13:43:34;15.00;99.90
10873;DHT22;34586;53.616;10.032;2024-02-16T13:46:00;15.00;99.90
10873;DHT22;34586;53.616;10.032;2024-02-16T13:48:25;15.00;99.90
10873;DHT22;34586;53.616;10.032;2024-02-16T13:50:51;15.00;99.90
10873;DHT22;34586;53.616;10.032;2024-02-16T13:53:17;15.00;99.90
10873;DHT22;34586;53.616;10.032;2024-02-16T13:55:43;14.90;99.90
10873;DHT22;34586;53.616;10.032;2024-02-16T13:58:10;14.90;99.90
10873;DHT22;34586;53.616;10.032;2024-02-16T14:00:36;14.80;99.90
10873;DHT22;34586;53.616;10.032;2024-02-16T14:03:06;14.80;99.90
10873;DHT22;34586;53.616;10.032;2024-02-16T14:05:37;14.80;99.90
10873;DHT22;34586;53.616;10.032;2024-02-16T14:08:03;14.90;99.90
10873;DHT22;34586;53.616;10.032;2024-02-16T14:10:30;14.90;99.90
10873;DHT22;34586;53.616;10.032;2024-02-16T14:12:57;15.00;99.90
10873;DHT22;34586;53.616;10.032;2024-02-16T14:15:23;14.90;99.90
10873;DHT22;34586;53.616;10.032;2024-02-16T14:17:48;15.00;99.90
10873;DHT22;34586;53.616;10.032;2024-02-16T14:20:14;15.00;99.90
10873;DHT22;34586;53.616;10.032;2024-02-16T14:22:40;15.00;99.90
10873;DHT22;34586;53.616;10.032;2024-02-16T14:25:05;15.00;99.90
10873;DHT22;34586;53.616;10.032;2024-02-16T14:27:31;15.00;99.90
10873;DHT22;34586;53.616;10.032;2024-02-16T14:29:58;15.00;99.90
10873;DHT22;34586;53.616;10.032;2024-02-16T14:32:23;14.90;99.90
10873;DHT22;34586;53.616;10.032;2024-02-16T14:34:49;14.90;99.90
10873;DHT22;34586;53.616;10.032;2024-02-16T14:37:15;14.80;99.90
10873;DHT22;34586;53.616;10.032;2024-02-16T14:39:40;14.80;99.90
10873;DHT22;34586;53.616;10.032;2024-02-16T14:42:06;14.70;99.90
10873;DHT22;34586;53.616;10.032;2024-02-16T14:44:31;14.60;99.90
10873;DHT22;34586;53.616;10.032;2024-02-16T14:46:57;14.60;99.90
10873;DHT22;34586;53.616;10.032;2024-02-16T14:49:22;14.60;99.90
10873;DHT22;34586;53.616;10.032;2024-02-16T14:51:50;14.50;99.90
10873;DHT22;34586;53.616;10.032;2024-02-16T14:54:18;14.50;99.90
10873;DHT22;34586;53.616;10.032;2024-02-16T14:56:43;14.40;99.90
10873;DHT22;34586;53.616;10.032;2024-02-16T14:59:09;14.40;99.90
10873;DHT22;34586;53.616;10.032;2024-02-16T15:01:36;14.30;99.90
10873;DHT22;34586;53.616;10.032;2024-02-16T15:04:02;14.20;99.90
10873;DHT22;34586;53.616;10.032;2024-02-16T15:06:28;14.20;99.90
10873;DHT22;34586;53.616;10.032;2024-02-16T15:08:54;14.00;99.90
10873;DHT22;34586;53.616;10.032;2024-02-16T15:11:20;14.10;99.90
10873;DHT22;34586;53.616;10.032;2024-02-16T15:13:45;14.00;99.90